• Join FlightAware (Why Join?)
  • Login
  • US Flag 
08:00AM EDT


 

Airport Tracker/Info


-or-


 

Live Flight TrackerFlight Track Log ✈ UAL4407 ✈ 19-Apr-2013 ✈ KMHT - KEWR

Flight Track Log - Related Links

Times and Time Zones

All times are in EDT time to prevent confusion due to time zone crossing. See the UAL4407 flight status page for this flight to view local times or setup timezone preferences in your user account.

Time Position Orientation Groundspeed Altitude Reporting Facility
EDT Latitude Longitude Course Direction KTS MPH feet Rate Location/Type
06:34AM 42.9167 -71.4167 280° West 161 185 1,000  Level KA90
06:35AM 42.8833 -71.4167 180° South 167 192 3,200 2,160 Climbing KA90
06:35AM 42.8753 -71.4314 233° Southwest 171 197 3,700 1,740 Climbing Boston Center
06:36AM 42.9072 -71.5103 299° West 202 232 5,700 2,100 Climbing Boston Center
06:37AM 42.9573 -71.7081 280° West  Level FlightAware Approximate
06:37AM 42.9392 -71.5836 301° West 244 281 7,800  Level Boston Center
06:38AM 42.9668 -71.8013 280° West  Level FlightAware Approximate
06:38AM 42.9522 -71.6883 280° West 251 289 10,100  Level Boston Center
06:39AM 42.9785 -71.8943 280° West  Level FlightAware Approximate
06:39AM 42.9550 -71.7792 272° West 262 302 11,200  Level Boston Center
06:40AM 42.9578 -71.9067 272° West 299 344 12,400 1,260 Climbing Boston Center
06:41AM 42.9603 -72.0144 272° West 319 367 13,700 1,380 Climbing Boston Center
06:42AM 42.9647 -72.1506 273° West 331 381 15,200 1,380 Climbing Boston Center
06:43AM 42.9714 -72.2783 274° West 338 389 16,500 1,380 Climbing Boston Center
06:44AM 42.9756 -72.4031 273° West 338 389 17,900 1,260 Climbing Boston Center
06:45AM 42.9819 -72.5308 274° West 333 383 19,200 1,020 Climbing Boston Center
06:46AM 42.9797 -72.6472 269° West 333 383 20,000 360 Climbing Boston Center
06:47AM 42.9814 -72.7864 271° West 346 398 20,000  Level Boston Center
06:48AM 42.9850 -72.9367 272° West 370 426 20,000  Level Boston Center
06:49AM 42.9883 -73.0986 272° West 397 457 20,000  Level Boston Center
06:50AM 42.9519 -73.2231 248° West 387 445 20,000  Level Boston Center
06:51AM 42.9072 -73.3528 245° Southwest 387 445 20,000  Level Boston Center
06:52AM 42.8644 -73.4825 246° West 387 445 20,000  Level Boston Center
06:53AM 42.8089 -73.6372 244° Southwest 382 440 20,000  Level Boston Center
06:54AM 42.7553 -73.7719 238° Southwest 382 440 20,000  Level Boston Center
06:55AM 42.7521 -73.7598 238° Southwest  Level FlightAware Approximate
06:55AM 42.6606 -73.8461 210° Southwest 370 426 20,000  Level Boston Center
06:56AM 42.5725 -73.8864 199° South 365 420 19,500 -1,200 Descending Boston Center
06:57AM 42.4572 -73.9317 196° South 381 438 17,700 -1,560 Descending Boston Center
06:58AM 42.3756 -73.9689 199° South 367 422 16,400 -900 Descending Boston Center
06:59AM 42.2750 -74.0114 197° South 351 404 16,000 -240 Descending Boston Center
07:01AM 42.1050 -74.0911 199° South 349 402 15,700 -480 Descending Boston Center
07:02AM 42.0147 -74.1306 198° South 349 402 14,700 -1,140 Descending Boston Center
07:03AM 41.9183 -74.1728 198° South 349 402 13,400 -1,200 Descending Boston Center
07:04AM 41.8447 -74.2042 198° South 328 377 12,400 -1,200 Descending Boston Center
07:05AM 41.7672 -74.2381 198° South 289 333 11,100 -1,320 Descending Boston Center
07:06AM 41.7064 -74.2642 198° South 262 302 9,900 -1,380 Descending Boston Center
07:07AM 41.6369 -74.2956 199° South 249 287 8,400 -1,440 Descending Boston Center
07:08AM 41.5803 -74.3189 197° South 249 287 7,100 -720 Descending Boston Center
07:09AM 41.5131 -74.3503 199° South 244 281 7,000  Descending Boston Center
07:12AM 41.3667 -74.4167 199° South 232 267 7,100  Climbing New York TRACON
07:13AM 41.3000 -74.4333 191° South 228 262 7,100  Level New York TRACON
07:14AM 41.2500 -74.4667 207° Southwest 229 264 7,100 -240 Level New York TRACON
07:15AM 41.1833 -74.4833 191° South 232 267 6,700 -540 Descending New York TRACON
07:16AM 41.1333 -74.4833 180° South 225 259 6,100 -300 Descending New York TRACON
07:17AM 41.1167 -74.4000 105° East 256 295 6,100 -360 Level New York TRACON
07:18AM 41.1000 -74.3167 105° East 229 264 5,400 -540 Descending New York TRACON
07:19AM 41.0667 -74.2500 124° Southeast 219 252 5,100 -300 Descending New York TRACON
07:20AM 41.0333 -74.1833 124° Southeast 194 223 4,900 -540 Descending New York TRACON
07:21AM 41.0000 -74.1333 131° Southeast 182 209 4,100 -480 Descending New York TRACON
07:22AM 40.9667 -74.1000 143° Southeast 169 194 4,100 -300 Level New York TRACON
07:23AM 40.9333 -74.0500 131° Southeast 171 197 3,600 -480 Descending New York TRACON
07:24AM 40.9000 -74.0167 143° Southeast 151 174 3,100 -300 Descending New York TRACON
07:25AM 40.8667 -74.0167 180° South 134 154 3,100 -300 Level New York TRACON
07:26AM 40.8333 -74.0500 217° Southwest 129 148 2,600 -240 Descending New York TRACON
07:27AM 40.8167 -74.0833 237° Southwest 128 147 2,600 -300 Level New York TRACON
07:28AM 40.7833 -74.1000 201° Southwest 124 143 2,100 -600 Descending New York TRACON
07:29AM 40.7500 -74.1167 201° Southwest 119 137 1,400 -720 Descending New York TRACON